createdAt,value
2023-04-09T00:00:06.483Z,97545.50
2023-04-09T00:03:18.309Z,97552.63
2023-04-09T00:05:42.703Z,97548.25
2023-04-09T00:08:09.572Z,97549.09
2023-04-09T00:10:36.443Z,97557.81
2023-04-09T00:13:06.315Z,97556.66
2023-04-09T00:15:33.265Z,97552.22
2023-04-09T00:18:03.688Z,97556.16
2023-04-09T00:20:30.673Z,97554.97
2023-04-09T00:22:58.391Z,97555.97
2023-04-09T00:25:25.949Z,97560.25
2023-04-09T00:27:53.151Z,97551.53
2023-04-09T00:30:20.105Z,97556.06
2023-04-09T00:32:47.431Z,97567.38
2023-04-09T00:35:14.867Z,97572.91
2023-04-09T00:37:41.911Z,97565.69
2023-04-09T00:40:09.180Z,97563.09
2023-04-09T00:42:42.239Z,97568.47
2023-04-09T00:45:10.123Z,97563.44
2023-04-09T00:47:40.218Z,97577.09
2023-04-09T00:50:11.015Z,97566.88
2023-04-09T00:52:38.748Z,97567.69
2023-04-09T00:55:19.022Z,97572.38
2023-04-09T00:58:13.455Z,97566.03
2023-04-09T01:00:49.916Z,97557.63
2023-04-09T01:03:32.828Z,97558.97
2023-04-09T01:14:46.567Z,97558.16
2023-04-09T01:21:39.451Z,97561.41
2023-04-09T01:25:13.410Z,97562.56
2023-04-09T01:28:14.265Z,97563.22
2023-04-09T01:35:05.918Z,97570.44
2023-04-09T01:38:40.076Z,97581.03
2023-04-09T01:42:16.745Z,97572.59
2023-04-09T01:48:26.654Z,97561.28
2023-04-09T01:51:58.210Z,97569.22
2023-04-09T01:56:00.773Z,97563.09
2023-04-09T02:07:59.213Z,97564.81
2023-04-09T02:13:21.159Z,97559.47
2023-04-09T02:27:51.455Z,97577.25
2023-04-09T02:34:51.412Z,97572.59
2023-04-09T03:14:58.308Z,97576.56
2023-04-09T03:18:32.841Z,97577.00
2023-04-09T03:25:25.051Z,97571.38
2023-04-09T03:27:54.504Z,97581.50
2023-04-09T03:30:21.284Z,97578.38
2023-04-09T03:32:48.153Z,97584.94
2023-04-09T03:35:14.957Z,97580.53
2023-04-09T03:41:39.326Z,97580.28
2023-04-09T03:44:29.701Z,97583.66
2023-04-09T03:46:57.016Z,97582.81
2023-04-09T03:49:23.985Z,97581.75
2023-04-09T03:51:50.754Z,97580.81
2023-04-09T03:54:17.482Z,97573.47
2023-04-09T03:56:44.260Z,97585.56
2023-04-09T03:59:11.110Z,97588.47
2023-04-09T04:01:38.082Z,97584.88
2023-04-09T04:04:05.362Z,97586.47
2023-04-09T04:06:35.663Z,97601.06
2023-04-09T04:09:03.386Z,97595.81
2023-04-09T04:11:33.321Z,97586.84
2023-04-09T04:14:03.441Z,97599.69
2023-04-09T04:16:33.264Z,97593.03
2023-04-09T04:19:00.403Z,97602.38
2023-04-09T04:21:39.305Z,97592.28
2023-04-09T04:24:06.798Z,97592.44
2023-04-09T04:26:33.999Z,97598.06
2023-04-09T04:29:18.347Z,97594.56
2023-04-09T04:32:00.824Z,97600.50
2023-04-09T04:34:31.040Z,97592.44
2023-04-09T04:36:58.279Z,97593.03
2023-04-09T04:39:26.232Z,97601.09
2023-04-09T04:41:58.460Z,97602.81
2023-04-09T04:44:28.298Z,97604.81
2023-04-09T04:46:57.716Z,97604.59
2023-04-09T04:49:46.185Z,97612.69
2023-04-09T04:52:26.101Z,97601.38
2023-04-09T04:55:02.292Z,97600.22
2023-04-09T05:00:56.408Z,97612.47
2023-04-09T05:07:15.168Z,97611.94
2023-04-09T05:16:49.734Z,97620.75
2023-04-09T05:19:16.915Z,97618.38
2023-04-09T05:22:10.567Z,97626.75
2023-04-09T05:25:47.337Z,97616.63
2023-04-09T05:31:53.107Z,97622.34
2023-04-09T05:37:24.071Z,97623.13
2023-04-09T05:39:52.827Z,97616.97
2023-04-09T05:42:19.947Z,97618.81
2023-04-09T05:44:50.054Z,97616.94
2023-04-09T05:47:17.725Z,97617.25
2023-04-09T05:49:44.541Z,97614.00
2023-04-09T05:52:11.460Z,97607.28
2023-04-09T05:54:41.362Z,97611.03
2023-04-09T05:57:08.204Z,97601.13
2023-04-09T05:59:47.284Z,97608.84
2023-04-09T06:02:14.551Z,97605.59
2023-04-09T06:04:41.994Z,97606.84
2023-04-09T06:07:12.316Z,97598.19
2023-04-09T06:09:45.327Z,97605.09
2023-04-09T06:12:12.674Z,97603.16
2023-04-09T06:14:40.151Z,97601.38
2023-04-09T06:17:10.271Z,97591.81
2023-04-09T06:19:37.614Z,97590.69
2023-04-09T06:22:06.430Z,97591.22
2023-04-09T06:24:46.905Z,97589.66
2023-04-09T06:27:22.323Z,97591.09
2023-04-09T06:30:02.018Z,97592.78
2023-04-09T06:32:33.764Z,97592.47
2023-04-09T06:35:15.383Z,97589.28
2023-04-09T06:37:45.612Z,97587.19
2023-04-09T06:41:41.556Z,97585.38
2023-04-09T06:43:14.377Z,97588.66
2023-04-09T06:46:05.801Z,97590.97
2023-04-09T06:48:33.708Z,97582.50
2023-04-09T06:51:03.984Z,97574.94
2023-04-09T06:53:57.129Z,97581.50
2023-04-09T06:56:37.681Z,97584.16
2023-04-09T07:05:28.030Z,97571.66
2023-04-09T07:07:57.798Z,97562.22
2023-04-09T07:10:30.231Z,97568.59
2023-04-09T07:12:57.423Z,97559.81
2023-04-09T07:15:53.991Z,97561.13
2023-04-09T07:18:23.557Z,97561.63
2023-04-09T07:20:59.488Z,97563.81
2023-04-09T07:23:26.320Z,97552.41
2023-04-09T07:25:56.534Z,97548.16
2023-04-09T07:28:27.284Z,97556.75
2023-04-09T07:31:06.313Z,97552.09
2023-04-09T07:33:36.846Z,97546.38
2023-04-09T07:36:09.664Z,97553.13
2023-04-09T07:38:36.569Z,97548.81
2023-04-09T07:41:16.836Z,97550.47
2023-04-09T07:43:51.170Z,97548.81
2023-04-09T07:46:22.321Z,97544.03
2023-04-09T07:48:51.083Z,97544.53
2023-04-09T07:51:50.671Z,97546.34
2023-04-09T07:54:17.879Z,97542.44
2023-04-09T08:03:08.508Z,97537.25
2023-04-09T08:15:22.456Z,97521.16
2023-04-09T08:17:25.545Z,97528.25
2023-04-09T08:20:21.241Z,97532.44
2023-04-09T08:26:40.555Z,97513.56
2023-04-09T08:29:42.878Z,97526.66
2023-04-09T08:32:16.456Z,97535.63
2023-04-09T08:34:49.516Z,97521.25
2023-04-09T08:40:51.447Z,97518.88
2023-04-09T08:43:57.666Z,97529.16
2023-04-09T08:46:26.374Z,97522.47
2023-04-09T08:49:40.234Z,97523.66
2023-04-09T08:55:45.875Z,97527.81
2023-04-09T08:58:17.665Z,97527.34
2023-04-09T09:00:45.251Z,97529.19
2023-04-09T09:03:30.739Z,97535.16
2023-04-09T09:06:06.950Z,97532.91
2023-04-09T09:08:42.637Z,97519.31
2023-04-09T09:11:12.213Z,97527.63
2023-04-09T09:13:45.492Z,97519.63
2023-04-09T09:19:10.854Z,97524.31
2023-04-09T09:22:12.715Z,97526.50
2023-04-09T09:28:15.951Z,97525.59
2023-04-09T09:30:49.260Z,97526.31
2023-04-09T09:33:38.909Z,97526.88
2023-04-09T09:36:06.151Z,97516.72
2023-04-09T09:38:34.831Z,97516.31
2023-04-09T09:41:34.123Z,97511.16
2023-04-09T09:44:30.241Z,97518.81
2023-04-09T09:47:31.916Z,97521.47
2023-04-09T09:49:58.721Z,97524.13
2023-04-09T09:59:56.069Z,97523.44
2023-04-09T10:02:31.467Z,97521.94
2023-04-09T10:05:27.097Z,97521.09
2023-04-09T10:08:07.774Z,97519.94
2023-04-09T10:10:39.177Z,97513.81
2023-04-09T10:22:44.166Z,97508.16
2023-04-09T10:23:03.421Z,97498.22
2023-04-09T10:25:22.953Z,97494.25
2023-04-09T10:28:03.421Z,97506.13
2023-04-09T10:30:48.539Z,97506.63
2023-04-09T10:33:26.723Z,97507.44
2023-04-09T10:35:56.812Z,97499.44
2023-04-09T10:38:37.656Z,97491.81
2023-04-09T10:41:36.426Z,97494.81
2023-04-09T10:46:52.595Z,97493.53
2023-04-09T10:52:45.543Z,97485.06
2023-04-09T10:55:36.659Z,97478.91
2023-04-09T10:58:13.112Z,97481.91
2023-04-09T11:00:43.470Z,97477.25
2023-04-09T11:03:22.827Z,97481.91
2023-04-09T11:06:01.090Z,97480.25
2023-04-09T11:08:41.821Z,97476.28
2023-04-09T11:11:17.133Z,97463.34
2023-04-09T11:13:47.717Z,97459.50
2023-04-09T11:16:24.268Z,97473.22
2023-04-09T11:18:54.208Z,97466.56
2023-04-09T11:21:24.468Z,97471.53
2023-04-09T11:23:54.585Z,97469.53
2023-04-09T11:26:36.343Z,97467.06
2023-04-09T11:29:09.557Z,97473.50
2023-04-09T11:31:48.537Z,97461.44
2023-04-09T11:34:51.848Z,97455.72
2023-04-09T11:37:22.060Z,97454.25
2023-04-09T11:39:51.829Z,97440.09
2023-04-09T11:42:22.164Z,97439.75
2023-04-09T11:44:56.428Z,97444.84
2023-04-09T11:47:24.233Z,97442.66
2023-04-09T11:49:50.870Z,97433.75
2023-04-09T11:52:29.132Z,97438.25
2023-04-09T11:55:04.503Z,97426.81
2023-04-09T11:57:43.387Z,97418.84
2023-04-09T12:00:17.476Z,97426.84
2023-04-09T12:02:51.356Z,97420.53
2023-04-09T12:05:29.263Z,97416.22
2023-04-09T12:08:11.139Z,97414.22
2023-04-09T12:10:39.035Z,97410.09
2023-04-09T12:13:08.439Z,97412.25
2023-04-09T12:15:37.517Z,97405.28
2023-04-09T12:18:07.896Z,97401.81
2023-04-09T12:21:04.813Z,97406.75
2023-04-09T12:23:32.018Z,97397.44
2023-04-09T12:26:02.498Z,97402.91
2023-04-09T12:28:29.729Z,97401.56
2023-04-09T12:30:58.513Z,97396.84
2023-04-09T12:33:25.446Z,97395.28
2023-04-09T12:35:52.431Z,97400.78
2023-04-09T12:38:19.291Z,97394.66
2023-04-09T12:40:51.920Z,97391.66
2023-04-09T12:43:18.734Z,97395.63
2023-04-09T12:46:04.788Z,97394.00
2023-04-09T12:48:31.607Z,97392.97
2023-04-09T12:53:55.868Z,97388.69
2023-04-09T13:02:36.693Z,97385.75
2023-04-09T13:09:14.554Z,97377.09
2023-04-09T13:15:55.905Z,97373.66
2023-04-09T13:19:10.450Z,97377.59
2023-04-09T13:21:40.682Z,97374.63
2023-04-09T13:24:38.724Z,97381.09
2023-04-09T13:27:06.686Z,97365.84
2023-04-09T13:29:42.196Z,97370.31
2023-04-09T13:32:11.311Z,97370.16
2023-04-09T13:34:39.747Z,97369.81
2023-04-09T13:37:07.502Z,97372.13
2023-04-09T13:39:37.829Z,97365.81
2023-04-09T13:42:12.547Z,97378.59
2023-04-09T13:44:42.726Z,97364.50
2023-04-09T13:47:14.554Z,97366.16
2023-04-09T13:49:43.705Z,97370.63
2023-04-09T13:52:11.805Z,97364.97
2023-04-09T13:54:38.909Z,97367.97
2023-04-09T13:57:16.376Z,97368.13
2023-04-09T13:59:44.152Z,97361.31
2023-04-09T14:02:11.190Z,97364.31
2023-04-09T14:04:38.409Z,97369.75
2023-04-09T14:07:05.379Z,97363.94
2023-04-09T14:09:41.833Z,97365.13
2023-04-09T14:12:08.795Z,97366.41
2023-04-09T14:14:36.235Z,97370.03
2023-04-09T14:17:04.704Z,97367.38
2023-04-09T14:19:31.685Z,97365.69
2023-04-09T14:22:05.038Z,97357.06
2023-04-09T14:24:40.383Z,97347.09
2023-04-09T14:27:09.639Z,97353.53
2023-04-09T14:29:44.375Z,97351.38
2023-04-09T14:32:19.215Z,97346.03
2023-04-09T14:34:46.241Z,97342.91
2023-04-09T14:37:13.168Z,97348.19
2023-04-09T14:39:40.060Z,97343.41
2023-04-09T14:42:06.891Z,97332.66
2023-04-09T14:45:07.542Z,97345.13
2023-04-09T14:48:03.173Z,97342.94
2023-04-09T14:51:14.870Z,97337.19
2023-04-09T14:53:44.460Z,97337.56
2023-04-09T14:56:11.604Z,97341.50
2023-04-09T14:58:38.792Z,97340.78
2023-04-09T15:01:06.146Z,97334.97
2023-04-09T15:03:33.636Z,97336.75
2023-04-09T15:06:01.400Z,97337.72
2023-04-09T15:08:28.885Z,97335.75
2023-04-09T15:10:57.676Z,97333.44
2023-04-09T15:13:27.765Z,97329.28
2023-04-09T15:15:54.878Z,97338.22
2023-04-09T15:18:21.932Z,97336.69
2023-04-09T15:20:51.704Z,97334.91
2023-04-09T15:23:23.434Z,97337.72
2023-04-09T15:26:08.773Z,97330.75
2023-04-09T15:28:38.799Z,97330.88
2023-04-09T15:31:14.414Z,97326.75
2023-04-09T15:33:45.691Z,97326.25
2023-04-09T15:36:43.390Z,97328.72
2023-04-09T15:39:06.855Z,97316.19
2023-04-09T15:41:34.117Z,97320.66
2023-04-09T15:44:06.448Z,97320.16
2023-04-09T15:46:33.344Z,97312.22
2023-04-09T15:52:47.044Z,97308.53
2023-04-09T15:55:14.434Z,97307.81
2023-04-09T15:57:41.491Z,97312.06
2023-04-09T16:00:10.316Z,97311.53
2023-04-09T16:02:39.155Z,97305.56
2023-04-09T16:05:07.190Z,97306.38
2023-04-09T16:07:34.255Z,97298.78
2023-04-09T16:10:02.250Z,97302.75
2023-04-09T16:12:28.903Z,97297.44
2023-04-09T16:14:55.870Z,97302.38
2023-04-09T16:17:28.331Z,97300.31
2023-04-09T16:20:18.815Z,97308.06
2023-04-09T16:23:02.036Z,97307.47
2023-04-09T16:25:31.955Z,97303.22
2023-04-09T16:28:11.010Z,97299.41
2023-04-09T16:30:38.455Z,97306.59
2023-04-09T16:33:05.724Z,97293.16
2023-04-09T16:35:36.733Z,97301.25
2023-04-09T16:38:16.948Z,97302.25
2023-04-09T16:40:51.848Z,97299.19
2023-04-09T16:43:18.784Z,97302.91
2023-04-09T16:45:48.425Z,97300.41
2023-04-09T16:48:15.740Z,97300.50
2023-04-09T16:54:31.321Z,97305.84
2023-04-09T17:04:45.353Z,97316.53
2023-04-09T17:07:12.579Z,97320.44
2023-04-09T17:09:39.486Z,97320.06
2023-04-09T17:12:38.364Z,97318.59
2023-04-09T17:18:12.595Z,97327.31
2023-04-09T17:23:51.000Z,97334.41
2023-04-09T17:26:24.410Z,97340.41
2023-04-09T17:29:00.694Z,97340.59
2023-04-09T17:31:35.337Z,97342.41
2023-04-09T17:34:27.968Z,97341.03
2023-04-09T17:37:05.898Z,97332.47
2023-04-09T17:44:56.764Z,97343.84
2023-04-09T18:44:12.546Z,97406.09
2023-04-09T19:11:07.263Z,97420.53
2023-04-09T19:18:19.567Z,97417.41
2023-04-09T19:20:33.733Z,97417.66
2023-04-09T19:30:18.513Z,97424.13
2023-04-09T19:39:20.233Z,97424.50
2023-04-09T19:42:23.695Z,97429.06
2023-04-09T19:49:12.452Z,97427.31
2023-04-09T19:52:01.781Z,97427.69
2023-04-09T19:57:55.188Z,97435.31
2023-04-09T20:04:47.459Z,97434.13
2023-04-09T20:19:29.795Z,97423.44
2023-04-09T20:22:07.568Z,97425.09
2023-04-09T20:23:55.050Z,97429.63
2023-04-09T20:30:09.487Z,97432.47
2023-04-09T20:44:01.127Z,97435.22
2023-04-09T20:44:12.295Z,97427.22
2023-04-09T20:46:32.908Z,97423.19
2023-04-09T20:49:07.931Z,97429.63
2023-04-09T20:51:59.858Z,97431.06
2023-04-09T20:54:38.824Z,97433.44
2023-04-09T20:58:24.170Z,97428.44
2023-04-09T21:00:20.671Z,97440.13
2023-04-09T21:02:57.460Z,97437.00
2023-04-09T21:05:32.378Z,97441.41
2023-04-09T21:08:02.668Z,97435.34
2023-04-09T21:10:51.256Z,97441.63
2023-04-09T21:13:22.764Z,97442.47
2023-04-09T21:22:35.103Z,97436.75
2023-04-09T21:28:12.753Z,97434.72
2023-04-09T21:30:44.475Z,97437.69
2023-04-09T21:36:06.683Z,97434.09
2023-04-09T21:38:38.158Z,97433.34
2023-04-09T21:41:15.425Z,97440.38
2023-04-09T21:44:10.883Z,97432.75
2023-04-09T21:46:54.656Z,97425.25
2023-04-09T21:49:39.964Z,97434.28
2023-04-09T21:55:11.626Z,97439.00
2023-04-09T21:57:56.152Z,97434.25
2023-04-09T22:00:32.813Z,97439.69
2023-04-09T22:06:59.853Z,97434.47
2023-04-09T22:10:01.840Z,97431.47
2023-04-09T22:16:08.265Z,97440.28
2023-04-09T22:26:53.413Z,97444.47
2023-04-09T22:30:01.337Z,97447.00
2023-04-09T22:36:31.162Z,97446.34
2023-04-09T22:38:59.451Z,97445.97
2023-04-09T22:41:36.373Z,97452.53
2023-04-09T22:44:18.667Z,97453.13
2023-04-09T22:47:18.434Z,97447.91
2023-04-09T22:50:03.129Z,97450.44
2023-04-09T22:52:50.194Z,97446.59
2023-04-09T22:55:26.584Z,97453.81
2023-04-09T22:58:06.462Z,97442.41
2023-04-09T23:00:44.321Z,97429.31
2023-04-09T23:10:43.111Z,97429.31
2023-04-09T23:13:18.293Z,97436.16
2023-04-09T23:16:26.182Z,97434.59
2023-04-09T23:18:40.174Z,97426.88
2023-04-09T23:21:19.052Z,97418.81
2023-04-09T23:25:03.168Z,97424.25
2023-04-09T23:27:30.216Z,97422.19
2023-04-09T23:31:08.478Z,97424.47
2023-04-09T23:33:47.974Z,97426.06
2023-04-09T23:36:41.428Z,97416.69
2023-04-09T23:39:31.452Z,97415.59
2023-04-09T23:45:47.299Z,97411.53
2023-04-09T23:48:20.053Z,97415.53
2023-04-09T23:50:49.212Z,97418.78
2023-04-09T23:53:20.763Z,97418.97
2023-04-09T23:59:43.487Z,97416.91
